Time;durP1;ratioP1;P1;durP2;ratioP2;P2;SDS_P1;SDS_P2;PMS_P1;PMS_P2;Temp;Humidity;BMP_temperature;BMP_pressure;BME280_temperature;BME280_humidity;BME280_pressure;Samples;Min_cycle;Max_cycle;Signal;HPM_P1;HPM_P2
2024/01/21 00:00:29;;;;;;;2.70;2.55;;;-6.40;99.90;;;;;;5060057;28;20040;-75
2024/01/21 00:02:56;;;;;;;0.75;0.75;;;-6.50;99.90;;;;;;5050198;28;20025;-75
2024/01/21 00:05:23;;;;;;;3.15;2.72;;;-6.50;99.90;;;;;;5041075;28;20033;-76
2024/01/21 00:07:49;;;;;;;1.30;1.25;;;-6.50;99.90;;;;;;5044445;28;20048;-76
2024/01/21 00:10:17;;;;;;;2.40;1.45;;;-6.50;99.90;;;;;;5049933;28;20029;-76
2024/01/21 00:12:43;;;;;;;14.18;5.30;;;-6.50;99.90;;;;;;5043151;28;20048;-76
2024/01/21 00:15:09;;;;;;;7.53;5.88;;;-6.50;99.90;;;;;;5041928;28;20370;-74
2024/01/21 00:17:36;;;;;;;4.18;3.83;;;-6.50;99.90;;;;;;5046762;28;20040;-75
2024/01/21 00:20:02;;;;;;;6.15;2.17;;;-6.60;99.90;;;;;;5045889;28;20041;-75
2024/01/21 00:22:28;;;;;;;6.43;4.07;;;-6.60;99.90;;;;;;5037969;28;20045;-75
2024/01/21 00:24:54;;;;;;;4.78;3.92;;;-6.60;99.90;;;;;;5040210;28;20033;-75
2024/01/21 00:27:21;;;;;;;22.52;3.72;;;-6.60;99.90;;;;;;5046881;28;20029;-75
2024/01/21 00:29:47;;;;;;;0.45;0.45;;;-6.60;99.90;;;;;;5051274;28;20025;-75
2024/01/21 00:32:13;;;;;;;2.10;2.00;;;-6.60;99.90;;;;;;5047480;28;20351;-74
2024/01/21 00:34:40;;;;;;;4.60;4.20;;;-6.60;99.90;;;;;;5042721;28;20026;-76
2024/01/21 00:37:06;;;;;;;5.30;4.85;;;-6.60;99.90;;;;;;5039511;28;20469;-74
2024/01/21 00:39:33;;;;;;;10.23;2.28;;;-6.60;99.90;;;;;;5036759;28;20044;-75
2024/01/21 00:41:59;;;;;;;3.72;3.53;;;-6.60;99.90;;;;;;5043226;28;20037;-74
2024/01/21 00:44:25;;;;;;;3.25;3.05;;;-6.70;99.90;;;;;;5044031;28;20033;-76
2024/01/21 00:46:52;;;;;;;7.35;2.95;;;-6.70;99.90;;;;;;5040782;28;20052;-76
2024/01/21 00:49:18;;;;;;;3.88;3.00;;;-6.70;99.90;;;;;;5032687;28;20362;-74
2024/01/21 00:51:44;;;;;;;3.47;3.28;;;-6.70;99.90;;;;;;5036835;28;20056;-75
2024/01/21 00:54:10;;;;;;;2.50;2.30;;;-6.60;99.90;;;;;;5037239;28;20033;-74
2024/01/21 00:56:36;;;;;;;4.97;1.33;;;-6.60;99.90;;;;;;5039084;28;20021;-75
2024/01/21 00:59:03;;;;;;;4.20;2.95;;;-6.50;99.90;;;;;;5037909;28;20040;-75
2024/01/21 01:01:30;;;;;;;4.57;2.72;;;-6.50;99.90;;;;;;5042469;28;20033;-75
2024/01/21 01:03:56;;;;;;;2.67;2.47;;;-6.60;99.90;;;;;;5045648;28;20065;-74
2024/01/21 01:06:22;;;;;;;3.40;3.13;;;-6.60;99.90;;;;;;5043352;28;20089;-75
2024/01/21 01:08:48;;;;;;;1.70;1.55;;;-6.60;99.90;;;;;;5039307;28;20052;-75
2024/01/21 01:11:15;;;;;;;3.70;3.50;;;-6.60;99.90;;;;;;5035635;28;20044;-75
2024/01/21 01:13:41;;;;;;;3.28;3.08;;;-6.60;99.90;;;;;;5034509;28;20036;-75
2024/01/21 01:16:07;;;;;;;3.30;2.80;;;-6.60;99.90;;;;;;5037716;28;20029;-75
2024/01/21 01:18:33;;;;;;;1.70;1.60;;;-6.60;99.90;;;;;;5041736;28;20036;-75
2024/01/21 01:21:00;;;;;;;0.28;0.28;;;-6.70;99.90;;;;;;5043931;28;20048;-75
2024/01/21 01:23:26;;;;;;;3.90;3.58;;;-6.70;99.90;;;;;;5041395;28;20026;-75
2024/01/21 01:25:52;;;;;;;4.07;3.78;;;-6.70;99.90;;;;;;5043037;28;20029;-74
2024/01/21 01:28:18;;;;;;;1.67;1.58;;;-6.70;99.90;;;;;;5040303;28;20029;-73
2024/01/21 01:30:45;;;;;;;3.75;3.45;;;-6.70;99.90;;;;;;5038136;28;20029;-74
2024/01/21 01:33:11;;;;;;;3.13;2.75;;;-6.70;99.90;;;;;;5037397;28;20032;-74
2024/01/21 01:35:37;;;;;;;4.43;2.78;;;-6.60;99.90;;;;;;5033946;28;20454;-74
2024/01/21 01:38:05;;;;;;;2.53;2.42;;;-6.60;99.90;;;;;;5038187;28;20559;-75
2024/01/21 01:40:31;;;;;;;4.32;4.03;;;-6.60;99.90;;;;;;5043468;28;20053;-74
2024/01/21 01:43:02;;;;;;;2.45;2.25;;;-6.60;99.90;;;;;;5048318;28;20605;-74
2024/01/21 01:45:29;;;;;;;3.85;3.53;;;-6.50;99.90;;;;;;5046097;28;20048;-74
2024/01/21 01:47:57;;;;;;;7.10;3.15;;;-6.50;99.90;;;;;;5036762;28;20029;-76
2024/01/21 01:50:24;;;;;;;1.38;0.95;;;-6.50;99.90;;;;;;5041150;28;20355;-74
2024/01/21 01:52:50;;;;;;;1.30;1.20;;;-6.40;99.90;;;;;;5036856;28;20386;-74
2024/01/21 01:55:18;;;;;;;11.93;4.22;;;-6.30;99.90;;;;;;5033183;28;20029;-74
2024/01/21 01:57:46;;;;;;;2.45;2.25;;;-6.40;99.90;;;;;;5045089;28;20025;-74
2024/01/21 02:00:13;;;;;;;6.00;4.13;;;-6.30;99.90;;;;;;5039330;28;20029;-74
2024/01/21 02:02:41;;;;;;;2.28;2.08;;;-6.30;99.90;;;;;;5041848;28;20037;-74
2024/01/21 02:05:07;;;;;;;7.50;6.85;;;-6.30;99.90;;;;;;5038364;28;20033;-74
2024/01/21 02:07:34;;;;;;;7.53;4.38;;;-6.30;99.90;;;;;;5039863;28;20462;-74
2024/01/21 02:10:01;;;;;;;7.38;3.10;;;-6.30;99.90;;;;;;5041407;28;20045;-74
2024/01/21 02:12:28;;;;;;;5.03;2.85;;;-6.30;99.90;;;;;;5046192;28;20029;-75
2024/01/21 02:14:54;;;;;;;2.85;2.70;;;-6.30;99.90;;;;;;5050066;28;20021;-74
2024/01/21 02:17:21;;;;;;;9.10;4.68;;;-6.30;99.90;;;;;;5053113;28;20040;-75
2024/01/21 02:19:47;;;;;;;29.75;4.10;;;-6.30;99.90;;;;;;5050166;28;20033;-75
2024/01/21 02:22:14;;;;;;;26.38;6.05;;;-6.30;99.90;;;;;;5045936;28;20052;-75
2024/01/21 02:24:40;;;;;;;6.22;2.63;;;-6.30;99.90;;;;;;5040001;28;20026;-75
2024/01/21 02:27:06;;;;;;;6.40;3.40;;;-6.30;99.90;;;;;;5039707;28;20025;-74
2024/01/21 02:29:32;;;;;;;1.20;1.10;;;-6.30;99.90;;;;;;5049716;28;20029;-76
2024/01/21 02:31:58;;;;;;;10.85;4.65;;;-6.30;99.90;;;;;;5047697;28;20040;-74
2024/01/21 02:34:24;;;;;;;1.35;1.20;;;-6.40;99.90;;;;;;5038675;28;20508;-74
2024/01/21 02:36:50;;;;;;;7.05;3.92;;;-6.40;99.90;;;;;;5051679;28;20366;-74
2024/01/21 02:39:17;;;;;;;5.20;4.78;;;-6.40;99.90;;;;;;5062173;28;20342;-74
2024/01/21 02:41:43;;;;;;;5.80;2.28;;;-6.40;99.90;;;;;;5053445;28;20462;-74
2024/01/21 02:44:09;;;;;;;2.80;2.38;;;-6.40;99.90;;;;;;5043028;28;20037;-74
2024/01/21 02:46:35;;;;;;;4.15;2.38;;;-6.40;99.90;;;;;;5039207;28;20029;-74
2024/01/21 02:49:01;;;;;;;4.18;3.65;;;-6.40;99.90;;;;;;5039151;28;20024;-74
2024/01/21 02:51:28;;;;;;;3.15;2.90;;;-6.40;99.90;;;;;;5048307;28;20041;-74
2024/01/21 02:53:54;;;;;;;3.05;2.33;;;-6.40;99.90;;;;;;5045277;28;20033;-74
2024/01/21 02:56:24;;;;;;;11.20;4.60;;;-6.30;99.90;;;;;;5040486;28;20386;-74
2024/01/21 02:58:51;;;;;;;1.77;1.70;;;-6.40;99.90;;;;;;5036506;28;20920;-74
2024/01/21 03:01:18;;;;;;;3.47;3.25;;;-6.40;99.90;;;;;;5050998;28;20052;-74
2024/01/21 03:03:45;;;;;;;4.55;4.25;;;-6.40;99.90;;;;;;5046996;28;20048;-74
2024/01/21 03:06:11;;;;;;;8.73;3.45;;;-6.40;99.90;;;;;;5043264;28;20029;-74
2024/01/21 03:08:38;;;;;;;6.80;6.20;;;-6.40;99.90;;;;;;5037308;28;20025;-74
2024/01/21 03:11:04;;;;;;;3.50;3.15;;;-6.40;99.90;;;;;;5043547;28;20033;-74
2024/01/21 03:13:30;;;;;;;6.75;6.22;;;-6.40;99.90;;;;;;5046988;28;20036;-74
2024/01/21 03:15:56;;;;;;;2.72;1.67;;;-6.40;99.90;;;;;;5044637;28;20040;-74
2024/01/21 03:18:22;;;;;;;22.92;6.22;;;-6.40;99.90;;;;;;5039182;28;20030;-74
2024/01/21 03:20:49;;;;;;;5.82;5.35;;;-6.40;99.90;;;;;;5037347;28;20029;-74
2024/01/21 03:23:15;;;;;;;7.20;3.65;;;-6.40;99.90;;;;;;5049196;28;20056;-74
2024/01/21 03:25:41;;;;;;;3.15;2.85;;;-6.40;99.90;;;;;;5044245;28;20038;-74
2024/01/21 03:28:09;;;;;;;4.57;4.18;;;-6.40;99.90;;;;;;5041030;28;20097;-74
2024/01/21 03:30:35;;;;;;;14.32;6.00;;;-6.30;99.90;;;;;;5036471;28;20043;-74
2024/01/21 03:33:01;;;;;;;4.50;3.47;;;-6.20;99.90;;;;;;5046614;28;20033;-74
2024/01/21 03:35:28;;;;;;;2.63;2.50;;;-6.30;99.90;;;;;;5046313;28;20378;-74
2024/01/21 03:37:54;;;;;;;3.88;3.58;;;-6.20;99.90;;;;;;5043372;28;20036;-75
2024/01/21 03:40:20;;;;;;;4.30;2.55;;;-6.30;99.90;;;;;;5049135;28;20049;-74
2024/01/21 03:42:47;;;;;;;0.93;0.93;;;-6.30;99.90;;;;;;5039783;28;20049;-74
2024/01/21 03:45:13;;;;;;;7.28;3.60;;;-6.30;99.90;;;;;;5049840;28;20040;-74
2024/01/21 03:47:39;;;;;;;3.88;3.63;;;-6.30;99.90;;;;;;5043929;28;20021;-74
2024/01/21 03:50:06;;;;;;;4.75;4.32;;;-6.30;99.90;;;;;;5039107;28;20029;-74
2024/01/21 03:52:32;;;;;;;4.22;3.83;;;-6.30;99.90;;;;;;5034122;28;20040;-74
2024/01/21 03:54:58;;;;;;;5.22;4.82;;;-6.30;99.90;;;;;;5044745;28;20045;-73
2024/01/21 03:57:25;;;;;;;3.67;3.38;;;-6.30;99.90;;;;;;5044071;28;20037;-74
2024/01/21 03:59:51;;;;;;;10.85;5.28;;;-6.30;99.90;;;;;;5044253;28;20029;-73
2024/01/21 04:02:19;;;;;;;32.75;4.15;;;-6.30;99.90;;;;;;5044056;28;20037;-74
2024/01/21 04:04:45;;;;;;;12.98;4.03;;;-6.30;99.90;;;;;;5043059;28;20025;-74
2024/01/21 04:07:11;;;;;;;4.10;3.80;;;-6.30;99.90;;;;;;5044343;28;20033;-74
2024/01/21 04:09:38;;;;;;;7.28;3.63;;;-6.30;99.90;;;;;;5043504;28;20037;-73
2024/01/21 04:12:04;;;;;;;1.25;1.20;;;-6.30;99.90;;;;;;5044543;28;20036;-73
2024/01/21 04:14:30;;;;;;;6.22;5.50;;;-6.30;99.90;;;;;;5036069;28;20084;-73
2024/01/21 04:16:56;;;;;;;1.50;1.45;;;-6.20;99.90;;;;;;5050559;28;20037;-74
2024/01/21 04:19:22;;;;;;;7.18;2.67;;;-6.20;99.90;;;;;;5045874;28;20442;-74
2024/01/21 04:21:49;;;;;;;5.95;3.92;;;-6.20;99.90;;;;;;5041003;28;20060;-74
2024/01/21 04:24:15;;;;;;;3.10;2.78;;;-6.10;99.90;;;;;;5036321;28;20025;-74
2024/01/21 04:26:41;;;;;;;5.65;4.43;;;-6.10;99.90;;;;;;5043282;28;20028;-74
2024/01/21 04:29:07;;;;;;;3.33;3.10;;;-6.00;99.90;;;;;;5047452;28;20032;-75
2024/01/21 04:31:34;;;;;;;17.73;5.63;;;-6.00;99.90;;;;;;5047351;28;20034;-75
2024/01/21 04:34:00;;;;;;;5.50;4.82;;;-5.90;99.90;;;;;;5037890;28;20036;-75
2024/01/21 04:36:26;;;;;;;3.17;2.97;;;-6.00;99.90;;;;;;5041516;28;20343;-76
2024/01/21 04:38:53;;;;;;;3.78;3.05;;;-6.00;99.90;;;;;;5049189;28;20032;-75
2024/01/21 04:41:19;;;;;;;6.05;5.60;;;-6.00;99.90;;;;;;5043204;28;20482;-75
2024/01/21 04:43:45;;;;;;;1.33;1.15;;;-6.10;99.90;;;;;;5039699;28;20040;-74
2024/01/21 04:46:12;;;;;;;6.82;4.70;;;-6.20;99.90;;;;;;5035257;28;20040;-74
2024/01/21 04:48:39;;;;;;;8.23;6.70;;;-6.20;99.90;;;;;;5047154;28;20025;-74
2024/01/21 04:51:05;;;;;;;3.75;3.50;;;-6.30;99.90;;;;;;5046518;28;20041;-74
2024/01/21 04:53:31;;;;;;;6.43;3.25;;;-6.30;99.90;;;;;;5040101;28;20052;-74
2024/01/21 04:55:57;;;;;;;2.08;1.58;;;-6.40;99.90;;;;;;5036054;28;20039;-74
2024/01/21 04:58:23;;;;;;;4.75;4.22;;;-6.50;99.90;;;;;;5037469;28;20463;-75
2024/01/21 05:00:49;;;;;;;3.95;3.65;;;-6.50;99.90;;;;;;5037305;28;20041;-75
2024/01/21 05:03:15;;;;;;;6.65;2.20;;;-6.50;99.90;;;;;;5040584;28;20048;-74
2024/01/21 05:05:42;;;;;;;2.65;2.45;;;-6.40;99.90;;;;;;5038137;28;20382;-75
2024/01/21 05:08:08;;;;;;;1.90;1.83;;;-6.40;99.90;;;;;;5035883;28;20029;-74
2024/01/21 05:10:35;;;;;;;3.08;2.88;;;-6.40;99.90;;;;;;5050430;28;20028;-74
2024/01/21 05:13:01;;;;;;;4.30;3.90;;;-6.40;99.90;;;;;;5055643;28;20036;-74
2024/01/21 05:15:27;;;;;;;7.95;3.92;;;-6.40;99.90;;;;;;5045450;28;20017;-75
2024/01/21 05:17:56;;;;;;;6.82;4.50;;;-6.30;99.90;;;;;;5034816;28;20037;-73
2024/01/21 05:20:23;;;;;;;4.57;1.77;;;-6.30;99.90;;;;;;5042821;28;20036;-75
2024/01/21 05:22:50;;;;;;;12.50;7.53;;;-6.30;99.90;;;;;;5045462;28;20037;-74
2024/01/21 05:25:17;;;;;;;3.78;2.72;;;-6.50;99.90;;;;;;5041133;28;20029;-75
2024/01/21 05:27:43;;;;;;;7.10;5.53;;;-6.60;99.90;;;;;;5018771;28;20033;-76
2024/01/21 05:30:12;;;;;;;2.83;2.63;;;-6.80;99.90;;;;;;5036269;28;20028;-75
2024/01/21 05:32:39;;;;;;;4.15;1.90;;;-6.90;99.90;;;;;;5034654;28;20045;-75
2024/01/21 05:35:07;;;;;;;1.08;1.08;;;-6.90;99.90;;;;;;5039409;28;20032;-73
2024/01/21 05:37:33;;;;;;;7.15;6.45;;;-7.00;99.90;;;;;;5038695;28;20036;-74
2024/01/21 05:39:59;;;;;;;4.40;4.00;;;-7.00;99.90;;;;;;5033246;28;20578;-74
2024/01/21 05:42:25;;;;;;;5.18;4.43;;;-7.00;99.90;;;;;;5047995;28;20032;-74
2024/01/21 05:44:51;;;;;;;3.13;2.40;;;-7.00;99.90;;;;;;5041038;28;20048;-73
2024/01/21 05:47:17;;;;;;;2.47;2.33;;;-7.10;99.90;;;;;;5040469;28;20462;-73
2024/01/21 05:49:44;;;;;;;8.98;4.45;;;-7.10;99.90;;;;;;5046341;28;20378;-74
2024/01/21 05:52:10;;;;;;;4.70;4.32;;;-7.20;99.90;;;;;;5043424;28;20025;-73
2024/01/21 05:54:36;;;;;;;1.90;1.80;;;-7.20;99.90;;;;;;5046110;28;20390;-75
2024/01/21 05:57:02;;;;;;;0.90;0.90;;;-7.30;99.90;;;;;;5041431;28;20037;-75
2024/01/21 05:59:29;;;;;;;4.13;3.70;;;-7.30;99.90;;;;;;5035985;28;20021;-75
2024/01/21 06:01:55;;;;;;;13.30;8.32;;;-7.30;99.90;;;;;;5032426;28;20032;-74
2024/01/21 06:04:21;;;;;;;10.48;4.43;;;-7.40;99.90;;;;;;5034851;28;20049;-74
2024/01/21 06:06:48;;;;;;;6.30;5.75;;;-7.40;99.90;;;;;;5038273;28;20025;-74
2024/01/21 06:09:14;;;;;;;12.25;10.52;;;-7.40;99.90;;;;;;5043385;28;20037;-75
2024/01/21 06:11:41;;;;;;;12.20;11.07;;;-7.40;99.90;;;;;;5047517;28;20021;-74
2024/01/21 06:14:07;;;;;;;11.95;7.22;;;-7.40;99.90;;;;;;5049951;28;20048;-75
2024/01/21 06:16:33;;;;;;;2.45;2.35;;;-7.40;99.90;;;;;;5044429;28;20037;-74
2024/01/21 06:18:59;;;;;;;4.07;2.45;;;-7.40;99.90;;;;;;5040361;28;20029;-74
2024/01/21 06:21:26;;;;;;;3.90;3.08;;;-7.50;99.90;;;;;;5036879;28;20041;-74
2024/01/21 06:23:52;;;;;;;6.68;4.70;;;-7.60;99.90;;;;;;5035805;28;20033;-74
2024/01/21 06:26:22;;;;;;;5.43;3.95;;;-7.60;99.90;;;;;;5045881;28;20045;-74
2024/01/21 06:28:52;;;;;;;10.80;3.50;;;-7.70;99.90;;;;;;5041552;28;20036;-76
2024/01/21 06:31:18;;;;;;;10.60;4.07;;;-7.70;99.90;;;;;;5037723;28;20030;-75
2024/01/21 06:33:45;;;;;;;4.32;3.92;;;-7.70;99.90;;;;;;5047638;28;20047;-75
2024/01/21 06:36:11;;;;;;;3.05;2.78;;;-7.70;99.90;;;;;;5045312;28;20036;-74
2024/01/21 06:38:40;;;;;;;10.20;2.42;;;-7.80;99.90;;;;;;5043430;28;20033;-75
2024/01/21 06:41:06;;;;;;;2.22;2.00;;;-7.80;99.90;;;;;;5039128;28;20046;-74
2024/01/21 06:43:32;;;;;;;1.92;1.83;;;-7.90;99.90;;;;;;5033625;28;20385;-75
2024/01/21 06:45:59;;;;;;;2.60;2.40;;;-7.90;99.90;;;;;;5041902;28;20033;-74
2024/01/21 06:48:25;;;;;;;4.78;4.20;;;-8.00;99.90;;;;;;5046592;28;20374;-74
2024/01/21 06:50:52;;;;;;;1.58;1.52;;;-8.00;99.90;;;;;;5044084;28;20030;-75
2024/01/21 06:53:19;;;;;;;3.47;2.28;;;-8.00;99.90;;;;;;5039640;28;20384;-75
2024/01/21 06:55:45;;;;;;;3.38;3.05;;;-8.10;99.90;;;;;;5035954;28;20025;-75
2024/01/21 06:58:12;;;;;;;2.58;2.30;;;-8.10;99.90;;;;;;5046187;28;20048;-75
2024/01/21 07:00:38;;;;;;;1.63;1.15;;;-8.10;99.90;;;;;;5043903;28;20024;-74
2024/01/21 07:03:04;;;;;;;13.40;6.53;;;-8.10;99.90;;;;;;5042389;28;20042;-74
2024/01/21 07:05:31;;;;;;;7.93;3.05;;;-8.10;99.90;;;;;;5036631;28;20378;-74
2024/01/21 07:07:57;;;;;;;1.90;1.75;;;-8.00;99.90;;;;;;5045317;28;20032;-74
2024/01/21 07:10:23;;;;;;;2.35;2.25;;;-8.00;99.90;;;;;;5048515;28;20059;-74
2024/01/21 07:12:50;;;;;;;12.52;4.45;;;-7.90;99.90;;;;;;5042310;28;20026;-75
2024/01/21 07:15:16;;;;;;;2.90;2.70;;;-7.80;99.90;;;;;;5040297;28;20036;-74
2024/01/21 07:17:43;;;;;;;13.57;3.70;;;-7.80;99.90;;;;;;5041389;28;20028;-74
2024/01/21 07:20:12;;;;;;;5.82;3.20;;;-7.80;99.90;;;;;;5049980;28;20029;-74
2024/01/21 07:22:38;;;;;;;7.13;3.33;;;-7.70;99.90;;;;;;5045010;28;20053;-74
2024/01/21 07:25:05;;;;;;;13.55;2.72;;;-7.70;99.90;;;;;;5040022;28;20048;-74
2024/01/21 07:27:31;;;;;;;1.85;1.75;;;-7.70;99.90;;;;;;5035535;28;20144;-74
2024/01/21 07:29:57;;;;;;;5.35;3.53;;;-7.60;99.90;;;;;;5049407;28;20393;-74
2024/01/21 07:32:23;;;;;;;3.97;3.58;;;-7.60;99.90;;;;;;5043853;28;20033;-73
2024/01/21 07:34:50;;;;;;;3.60;3.25;;;-7.60;99.90;;;;;;5039329;28;20445;-73
2024/01/21 07:37:16;;;;;;;3.85;1.88;;;-7.50;99.90;;;;;;5037726;28;20036;-73
2024/01/21 07:39:42;;;;;;;2.67;2.58;;;-7.50;99.90;;;;;;5036910;28;20049;-74
2024/01/21 07:42:08;;;;;;;4.03;3.78;;;-7.40;99.90;;;;;;5039353;28;20030;-73
2024/01/21 07:44:35;;;;;;;17.90;5.00;;;-7.30;99.90;;;;;;5054191;28;20044;-74
2024/01/21 07:47:01;;;;;;;8.00;4.00;;;-7.10;99.90;;;;;;5044083;28;20029;-74
2024/01/21 07:49:27;;;;;;;2.88;2.67;;;-7.10;99.90;;;;;;5038396;28;20051;-73
2024/01/21 07:51:53;;;;;;;2.45;2.28;;;-7.00;99.90;;;;;;5048085;28;20029;-74
2024/01/21 07:54:20;;;;;;;5.50;3.60;;;-6.90;99.90;;;;;;5039040;28;20021;-73
2024/01/21 07:56:46;;;;;;;4.50;4.10;;;-6.70;99.90;;;;;;5040207;28;20032;-73
2024/01/21 07:59:12;;;;;;;3.08;2.40;;;-6.60;99.90;;;;;;5036867;28;20041;-73
2024/01/21 08:01:38;;;;;;;3.13;2.90;;;-6.50;99.90;;;;;;5028785;28;20025;-74
2024/01/21 08:04:04;;;;;;;8.73;2.65;;;-6.40;99.90;;;;;;5044160;28;20040;-74
2024/01/21 08:06:30;;;;;;;3.80;3.50;;;-6.20;99.90;;;;;;5048457;28;20025;-74
2024/01/21 08:08:57;;;;;;;5.32;4.88;;;-6.10;99.90;;;;;;5041216;28;20136;-74
2024/01/21 08:11:23;;;;;;;1.10;1.05;;;-6.00;99.90;;;;;;5043911;28;20028;-74
2024/01/21 08:13:49;;;;;;;8.00;3.20;;;-5.80;99.90;;;;;;5040525;28;20033;-74
2024/01/21 08:16:15;;;;;;;1.60;1.50;;;-5.70;99.90;;;;;;5037729;28;20033;-74
2024/01/21 08:18:42;;;;;;;2.25;2.05;;;-5.60;99.90;;;;;;5039476;28;20367;-73
2024/01/21 08:21:08;;;;;;;3.20;2.95;;;-5.50;99.90;;;;;;5039983;28;20040;-74
2024/01/21 08:23:35;;;;;;;3.17;2.97;;;-5.40;99.90;;;;;;5041077;28;20055;-73
2024/01/21 08:26:04;;;;;;;7.35;3.80;;;-5.30;99.90;;;;;;5039333;28;20036;-74
2024/01/21 08:28:30;;;;;;;9.48;2.30;;;-5.30;99.90;;;;;;5043428;28;20029;-74
2024/01/21 08:30:56;;;;;;;3.15;2.95;;;-5.30;99.90;;;;;;5040421;28;20048;-73
2024/01/21 08:33:24;;;;;;;1.60;1.42;;;-5.20;99.90;;;;;;5040967;28;20068;-73
2024/01/21 08:35:50;;;;;;;8.30;4.47;;;-5.20;99.90;;;;;;5040203;28;20477;-73
2024/01/21 08:38:18;;;;;;;3.08;2.60;;;-5.10;99.90;;;;;;5038001;28;20033;-73
2024/01/21 08:40:44;;;;;;;3.83;3.53;;;-5.00;99.90;;;;;;5039010;28;20045;-73
2024/01/21 08:43:10;;;;;;;2.78;2.53;;;-5.00;99.90;;;;;;5037502;28;20033;-73
2024/01/21 08:45:37;;;;;;;5.47;4.85;;;-4.90;99.90;;;;;;5041013;28;20036;-73
2024/01/21 08:48:04;;;;;;;5.93;4.35;;;-4.90;99.90;;;;;;5039937;28;20032;-74
2024/01/21 08:50:30;;;;;;;4.38;4.03;;;-4.80;99.90;;;;;;5040841;28;20025;-74
2024/01/21 08:52:56;;;;;;;9.52;4.00;;;-4.70;99.90;;;;;;5038369;28;20474;-74
2024/01/21 08:55:22;;;;;;;5.03;4.63;;;-4.60;99.90;;;;;;5039017;28;20450;-74
2024/01/21 08:57:48;;;;;;;2.05;1.95;;;-4.50;99.90;;;;;;5043724;28;20370;-73
2024/01/21 09:00:15;;;;;;;3.92;3.63;;;-4.20;99.90;;;;;;5046677;28;20033;-73
2024/01/21 09:02:41;;;;;;;7.53;4.57;;;-4.10;99.90;;;;;;5045970;28;20478;-74
2024/01/21 09:05:07;;;;;;;5.40;4.78;;;-3.90;1.00;;;;;;5036524;28;20033;-74
2024/01/21 09:07:34;;;;;;;5.45;4.90;;;-3.70;99.90;;;;;;5048131;28;20040;-74
2024/01/21 09:10:00;;;;;;;3.05;2.75;;;-3.80;99.90;;;;;;5041036;28;20041;-73
2024/01/21 09:12:26;;;;;;;26.60;3.25;;;-3.80;99.90;;;;;;5038093;28;20037;-74
2024/01/21 09:14:52;;;;;;;13.70;7.43;;;-3.80;99.90;;;;;;5040302;28;20025;-74
2024/01/21 09:17:18;;;;;;;5.20;3.55;;;-3.70;99.90;;;;;;5039688;28;20347;-74
2024/01/21 09:19:44;;;;;;;2.78;2.58;;;-3.70;99.90;;;;;;5038700;28;20036;-74
2024/01/21 09:22:11;;;;;;;2.55;1.73;;;-3.70;99.90;;;;;;5038557;28;20045;-74
2024/01/21 09:24:37;;;;;;;4.18;3.83;;;-3.60;99.90;;;;;;5039987;28;20037;-73
2024/01/21 09:27:03;;;;;;;3.30;3.00;;;-3.50;99.90;;;;;;5045368;28;20395;-74
2024/01/21 09:29:30;;;;;;;9.77;4.18;;;-3.40;99.90;;;;;;5038937;28;20046;-73
2024/01/21 09:31:57;;;;;;;4.68;3.75;;;-3.40;99.90;;;;;;5038631;28;20025;-74
2024/01/21 09:34:24;;;;;;;4.70;4.40;;;-3.30;99.90;;;;;;5038811;28;20378;-74
2024/01/21 09:36:53;;;;;;;2.50;2.30;;;-3.10;99.90;;;;;;5038062;28;20037;-74
2024/01/21 09:39:20;;;;;;;6.23;3.47;;;-3.00;99.90;;;;;;5041185;28;20040;-75
2024/01/21 09:41:51;;;;;;;2.83;2.25;;;-2.90;99.90;;;;;;5037945;28;20473;-74
2024/01/21 09:44:19;;;;;;;3.45;2.72;;;-2.80;99.90;;;;;;5042425;28;20033;-74
2024/01/21 09:46:57;;;;;;;4.05;3.28;;;-2.80;99.90;;;;;;5037296;28;20040;-74
2024/01/21 09:49:24;;;;;;;2.20;2.05;;;-2.60;99.90;;;;;;5039945;28;20029;-72
2024/01/21 09:51:52;;;;;;;5.78;4.07;;;-2.70;99.90;;;;;;5033823;28;20454;-72
2024/01/21 09:54:20;;;;;;;1.80;1.70;;;-2.70;99.90;;;;;;5036556;28;20040;-72
2024/01/21 09:56:47;;;;;;;1.95;1.65;;;-2.60;99.90;;;;;;5035808;28;20037;-72
2024/01/21 09:59:14;;;;;;;7.68;3.08;;;-2.60;99.90;;;;;;5036737;28;20029;-73
2024/01/21 10:01:41;;;;;;;9.52;2.40;;;-2.60;99.90;;;;;;5036896;28;20040;-74
2024/01/21 10:04:09;;;;;;;3.03;2.17;;;-2.60;99.90;;;;;;5038661;28;20038;-73
2024/01/21 10:06:35;;;;;;;6.40;2.72;;;-2.50;99.90;;;;;;5040151;28;20028;-73
2024/01/21 10:09:19;;;;;;;8.38;5.47;;;-2.40;99.90;;;;;;5036099;28;20033;-73
2024/01/21 10:11:52;;;;;;;2.30;2.20;;;-2.30;99.90;;;;;;5038258;28;20361;-74
2024/01/21 10:14:18;;;;;;;3.72;3.00;;;-2.20;99.90;;;;;;5038156;28;20040;-74
2024/01/21 10:16:45;;;;;;;2.92;1.95;;;-2.00;99.90;;;;;;5044968;28;20029;-74
2024/01/21 10:19:15;;;;;;;1.23;1.20;;;-2.00;99.90;;;;;;5052143;28;20029;-74
2024/01/21 10:21:42;;;;;;;0.70;0.70;;;-2.00;99.90;;;;;;5034754;28;20033;-71
2024/01/21 10:24:10;;;;;;;4.22;2.75;;;-1.80;99.90;;;;;;5046608;28;20036;-76
2024/01/21 10:26:37;;;;;;;4.45;4.03;;;-1.70;99.90;;;;;;5043953;28;20037;-75
2024/01/21 10:29:04;;;;;;;7.22;3.13;;;-1.60;99.90;;;;;;5045297;28;20024;-75
2024/01/21 10:31:33;;;;;;;4.15;3.72;;;-1.50;99.90;;;;;;5041885;28;20026;-74
2024/01/21 10:34:02;;;;;;;8.02;3.95;;;-1.40;99.90;;;;;;5040002;28;20028;-72
2024/01/21 10:36:33;;;;;;;2.72;2.33;;;-1.20;99.90;;;;;;5043822;28;20033;-71
2024/01/21 10:39:03;;;;;;;4.20;3.80;;;-1.20;99.90;;;;;;5044018;28;20047;-72
2024/01/21 10:41:33;;;;;;;1.95;1.85;;;-1.20;99.90;;;;;;5037125;28;20036;-72
2024/01/21 10:44:02;;;;;;;12.13;10.82;;;-1.50;82.80;;;;;;5048102;28;20041;-72
2024/01/21 10:46:32;;;;;;;14.20;12.77;;;-1.60;40.00;;;;;;5045617;28;20036;-72
2024/01/21 10:48:59;;;;;;;9.02;8.18;;;-1.70;27.40;;;;;;5042897;28;20033;-72
2024/01/21 10:51:26;;;;;;;3.05;2.85;;;-1.80;16.90;;;;;;5041603;28;20450;-72
2024/01/21 10:53:53;;;;;;;5.47;2.55;;;-1.70;39.70;;;;;;5045071;28;20036;-73
2024/01/21 10:56:20;;;;;;;5.00;4.15;;;-1.60;43.70;;;;;;5043627;28;20029;-72
2024/01/21 10:58:50;;;;;;;7.47;5.03;;;-1.60;18.20;;;;;;5044924;28;20029;-72
2024/01/21 11:01:16;;;;;;;7.50;3.80;;;-1.50;1.00;;;;;;5043513;28;20044;-74
2024/01/21 11:03:44;;;;;;;3.22;3.00;;;-1.40;1.00;;;;;;5044563;28;20037;-76
2024/01/21 11:06:11;;;;;;;3.83;3.53;;;-1.00;1.00;;;;;;5039205;28;20045;-75
2024/01/21 11:08:43;;;;;;;5.80;3.67;;;-1.00;1.00;;;;;;5041637;28;20029;-75
2024/01/21 11:11:09;;;;;;;10.35;4.75;;;-0.90;1.00;;;;;;5044658;28;20653;-74
2024/01/21 11:13:52;;;;;;;3.83;3.38;;;-0.80;1.00;;;;;;5039325;28;20037;-74
2024/01/21 11:16:30;;;;;;;3.20;2.83;;;-0.70;1.00;;;;;;5039217;28;20025;-75
2024/01/21 11:18:58;;;;;;;3.13;2.90;;;-0.90;1.00;;;;;;5042628;28;20025;-73
2024/01/21 11:21:27;;;;;;;3.45;3.15;;;-1.00;1.00;;;;;;5039922;28;20416;-73
2024/01/21 11:24:03;;;;;;;6.70;6.20;;;-1.00;1.00;;;;;;5039328;28;20026;-73
2024/01/21 11:26:31;;;;;;;3.40;3.13;;;-1.00;1.00;;;;;;5045686;28;20040;-73
2024/01/21 11:28:59;;;;;;;3.13;2.85;;;-1.10;1.00;;;;;;5040870;28;20052;-74
2024/01/21 11:31:26;;;;;;;2.67;2.47;;;-1.10;1.00;;;;;;5039724;28;20044;-74
2024/01/21 11:34:09;;;;;;;2.10;2.00;;;-1.10;1.00;;;;;;5041564;28;20052;-74
2024/01/21 11:36:37;;;;;;;8.40;4.95;;;-1.10;1.00;;;;;;5042455;28;20509;-73
2024/01/21 11:39:07;;;;;;;5.10;4.05;;;-1.20;1.00;;;;;;5040132;28;20033;-73
2024/01/21 11:41:39;;;;;;;2.05;1.92;;;-1.20;1.00;;;;;;5041591;28;20037;-73
2024/01/21 11:44:25;;;;;;;5.97;2.15;;;-1.10;1.00;;;;;;5047966;28;20045;-74
2024/01/21 11:46:56;;;;;;;2.10;2.00;;;-1.00;1.00;;;;;;5028254;28;20036;-76
2024/01/21 11:49:23;;;;;;;2.53;2.30;;;-0.90;1.00;;;;;;5049659;28;20040;-76
2024/01/21 11:51:51;;;;;;;2.97;2.78;;;-0.90;1.00;;;;;;5040441;28;20025;-76
2024/01/21 11:54:19;;;;;;;2.92;2.70;;;-0.90;1.00;;;;;;5046111;28;20466;-75
2024/01/21 11:56:46;;;;;;;3.90;3.53;;;-0.80;1.00;;;;;;5047967;28;20033;-76
2024/01/21 11:59:14;;;;;;;1.67;1.60;;;-0.80;1.00;;;;;;5048279;28;20033;-76
2024/01/21 12:01:41;;;;;;;2.72;2.40;;;-0.70;1.00;;;;;;5046216;28;20035;-77
2024/01/21 12:04:09;;;;;;;4.00;2.65;;;-0.50;1.00;;;;;;5039786;28;20030;-77
2024/01/21 12:06:44;;;;;;;3.15;2.80;;;-0.40;1.00;;;;;;5041533;28;20459;-76
2024/01/21 12:09:12;;;;;;;3.53;3.28;;;-0.10;1.00;;;;;;5043491;28;20037;-76
2024/01/21 12:11:39;;;;;;;3.38;3.13;;;-0.10;1.00;;;;;;5041829;28;20037;-77
2024/01/21 12:14:13;;;;;;;2.70;2.60;;;-0.10;1.00;;;;;;5048250;28;20064;-76
2024/01/21 12:16:42;;;;;;;3.38;3.13;;;-0.10;1.00;;;;;;5044598;28;20024;-76
2024/01/21 12:19:10;;;;;;;6.35;2.95;;;-0.10;1.00;;;;;;5041878;28;20024;-75
2024/01/21 12:21:36;;;;;;;5.40;3.35;;;-0.10;1.00;;;;;;5040789;28;20029;-76
2024/01/21 12:24:03;;;;;;;6.38;3.65;;;-0.20;1.00;;;;;;5041123;28;20048;-75
2024/01/21 12:26:29;;;;;;;4.88;4.38;;;-0.30;1.00;;;;;;5043314;28;20466;-76
2024/01/21 12:28:56;;;;;;;2.25;2.15;;;-0.40;1.00;;;;;;5039200;28;20026;-76
2024/01/21 12:31:34;;;;;;;4.43;2.67;;;-0.50;1.00;;;;;;5045552;28;20036;-71
2024/01/21 12:34:05;;;;;;;3.65;2.50;;;-0.50;1.00;;;;;;5044300;28;20029;-72
2024/01/21 12:36:40;;;;;;;2.20;2.10;;;-0.40;1.00;;;;;;5040063;28;20415;-72
2024/01/21 12:39:10;;;;;;;0.98;0.98;;;-0.40;1.00;;;;;;5037521;28;20040;-74
2024/01/21 12:41:37;;;;;;;3.47;3.15;;;-0.30;1.00;;;;;;5041045;28;20115;-73
2024/01/21 12:44:03;;;;;;;4.15;2.65;;;-0.30;1.00;;;;;;5037476;28;20029;-72
2024/01/21 12:46:30;;;;;;;1.90;1.80;;;-0.20;1.00;;;;;;5040469;28;20489;-72